• Join FlightAware (Why Join?)
  • Login
  • US Flag 
04:01PM EST


 

Airport Tracker/Info


-or-


 

Live Flight TrackerFlight Track Log ✈ UAL4476 ✈ 03-May-2013 ✈ KCLE - KBOS

Flight Track Log - Related Links

Times and Time Zones

All times are in EDT time to prevent confusion due to time zone crossing. See the UAL4476 flight status page for this flight to view local times or setup timezone preferences in your user account.

Time Position Orientation Groundspeed Altitude Reporting Facility
EDT Latitude Longitude Course Direction KTS MPH feet Rate Location/Type
08:52AM 41.3958 -81.8869 275° West 183 211 1,700  Level Cleveland Center
08:53AM 41.3994 -81.9422 275° West 213 245 3,300 1,920 Climbing Cleveland Center
08:54AM 41.4467 -81.9958 320° Northwest 275 316 5,300 2,160 Climbing Cleveland Center
08:55AM 41.4975 -81.9417 39° Northeast 313 360 7,700 2,400 Climbing Cleveland Center
08:56AM 41.5483 -81.8678 47° Northeast 296 341 10,100 1,560 Climbing Cleveland Center
08:57AM 41.6056 -81.7800 49° Northeast 296 341 10,900 1,260 Climbing Cleveland Center
08:58AM 41.6733 -81.6756 49° Northeast 322 371 12,700 1,560 Climbing Cleveland Center
08:59AM 41.7389 -81.5711 50° Northeast 348 400 14,100 1,260 Climbing Cleveland Center
09:00AM 41.7628 -81.4406 76° East 359 413 15,300 1,200 Climbing Cleveland Center
09:01AM 41.7867 -81.3017 77° East 365 420 16,600 1,200 Climbing Cleveland Center
09:02AM 41.8106 -81.1625 77° East 375 432 17,800 1,080 Climbing Cleveland Center
09:03AM 41.8342 -81.0236 77° East 381 438 18,800 1,140 Climbing Cleveland Center
09:04AM 41.8575 -80.8814 78° East 381 438 20,100 1,260 Climbing Cleveland Center
09:05AM 41.8806 -80.7367 78° East 393 452 21,400 1,200 Climbing Cleveland Center
09:06AM 41.9017 -80.6056 78° East 393 452 22,500 1,200 Climbing Cleveland Center
09:07AM 41.9244 -80.4603 78° East 393 452 23,800 1,260 Climbing Cleveland Center
09:08AM 41.9472 -80.3097 78° East 393 452 25,100 1,260 Climbing Cleveland Center
09:09AM 41.9717 -80.1669 77° East 393 452 26,400 1,260 Climbing Cleveland Center
09:10AM 41.9942 -80.0217 78° East 393 452 27,700 1,320 Climbing Cleveland Center
09:11AM 42.0203 -79.8619 78° East 393 452 29,100 1,320 Climbing Cleveland Center
09:12AM 42.0422 -79.7192 78° East 393 452 30,400 1,260 Climbing Cleveland Center
09:13AM 42.0639 -79.5736 79° East 393 452 31,700 1,320 Climbing Cleveland Center
09:14AM 42.0856 -79.4278 79° East 393 452 33,100 1,380 Climbing Cleveland Center
09:15AM 42.1089 -79.2844 78° East 393 452 34,500 900 Climbing Cleveland Center
09:16AM 42.1303 -79.1386 79° East 393 452 35,000 240 Climbing Cleveland Center
09:17AM 42.1511 -78.9811 80° East 399 459 35,000  Level Cleveland Center
09:18AM 42.1758 -78.8181 78° East 420 483 35,000  Level Cleveland Center
09:19AM 42.1983 -78.6689 78° East 448 516 35,000  Level Cleveland Center
09:20AM 42.2206 -78.5056 80° East 448 516 35,000  Level Cleveland Center
09:21AM 42.2425 -78.3450 79° East 448 516 35,000  Level Cleveland Center
09:22AM 42.2664 -78.1842 79° East 443 510 35,000  Level Cleveland Center
09:23AM 42.2881 -78.0206 80° East 437 503 35,000  Level Cleveland Center
09:24AM 42.3114 -77.8594 79° East 437 503 35,000  Level Cleveland Center
09:25AM 42.3322 -77.6958 80° East 437 503 35,000  Level Cleveland Center
09:27AM 42.3806 -77.3289 80° East 456 525 35,000  Level Boston Center
09:28AM 42.3994 -77.1783 80° East 450 518 35,000  Level Boston Center
09:29AM 42.4206 -77.0167 80° East 445 512 35,000  Level Boston Center
09:30AM 42.4417 -76.8550 80° East 445 512 35,000  Level Boston Center
09:31AM 42.4625 -76.6933 80° East 445 512 35,000  Level Boston Center
09:32AM 42.4864 -76.4950 81° East 440 506 35,000  Level Boston Center
09:33AM 42.5067 -76.3328 80° East 440 506 35,000  Level Boston Center
09:34AM 42.5183 -76.1700 84° East 440 506 35,000  Level Boston Center
09:35AM 42.5217 -76.0067 88° East 440 506 35,000  Level Boston Center
09:36AM 42.5244 -75.8408 89° East 440 506 35,000  Level Boston Center
09:37AM 42.5272 -75.6775 89° East 440 506 35,000  Level Boston Center
09:38AM 42.5319 -75.5114 88° East 440 506 35,000  Level Boston Center
09:39AM 42.5344 -75.3311 89° East 440 506 35,000  Level Boston Center
09:40AM 42.5364 -75.1706 89° East 433 498 35,000  Level Boston Center
09:41AM 42.5403 -75.0100 88° East 427 491 35,000  Level Boston Center
09:42AM 42.5436 -74.8553 88° East 421 484 35,000  Level Boston Center
09:43AM 42.5428 -74.6944 90° East 421 484 35,000  Level Boston Center
09:44AM 42.5458 -74.5339 88° East 421 484 35,000  Level Boston Center
09:45AM 42.5486 -74.3792 89° East 416 479 35,000  Level Boston Center
09:46AM 42.5489 -74.2214 90° East 416 479 35,000  Level Boston Center
09:47AM 42.5514 -74.0633 89° East 416 479 35,000 -300 Level Boston Center
09:48AM 42.5536 -73.9058 89° East 416 479 34,500 -720 Descending Boston Center
09:49AM 42.5533 -73.7450 90° East 422 486 33,600 -900 Descending Boston Center
09:50AM 42.5531 -73.5814 90° East 422 486 32,700 -900 Descending Boston Center
09:51AM 42.5542 -73.4519 89° East 422 486 31,900 -900 Descending Boston Center
09:52AM 42.5558 -73.2575 89° East 439 505 30,900 -1,020 Descending Boston Center
09:53AM 42.5547 -73.1025 91° East 438 504 29,900 -960 Descending Boston Center
09:54AM 42.5536 -72.9333 90° East 438 504 29,000 -900 Descending Boston Center
09:55AM 42.5519 -72.7756 91° East 431 496 28,100 -1,320 Descending Boston Center
09:56AM 42.5503 -72.6119 91° East 426 490 26,400 -1,980 Descending Boston Center
09:57AM 42.5483 -72.4514 91° East 421 484 24,200 -2,280 Descending Boston Center
09:58AM 42.5483 -72.3019 90° East 415 478 21,900 -2,700 Descending Boston Center
09:59AM 42.5458 -72.1528 91° East 376 433 18,900 -2,520 Descending Boston Center
10:00AM 42.5414 -72.0147 92° East 363 418 16,900 -2,400 Descending Boston Center
10:01AM 42.5283 -71.8850 98° East 357 411 14,200 -2,460 Descending Boston Center
10:02AM 42.5192 -71.7583 96° East 344 396 12,000 -1,680 Descending Boston Center
10:03AM 42.5081 -71.6289 97° East 344 396 10,900 -780 Descending Boston Center
10:03AM 42.5000 -71.5833 103° East 343 395 11,000 60 Climbing KA90
10:04AM 42.4833 -71.4667 101° East 339 390 11,000  Level KA90
10:05AM 42.4833 -71.3500 90° East 273 314 11,100 -600 Climbing KA90
10:06AM 42.4667 -71.2500 103° East 262 302 9,800 -1,620 Descending KA90
10:08AM 42.4667 -71.1500 90° East 252 290 7,800 -1,380 Descending KA90
10:08AM 42.4500 -71.0667 105° East 221 254 7,100 -900 Descending KA90
10:09AM 42.4167 -71.0000 124° Southeast 224 258 6,100 -540 Descending KA90
10:10AM 42.3667 -70.9667 154° Southeast 222 255 6,100  Level KA90
10:12AM 42.3000 -70.9333 160° South 213 245 6,100 -300 Level KA90
10:12AM 42.2500 -70.9667 206° Southwest 238 274 5,600 -1,020 Descending KA90
10:13AM 42.1833 -70.9833 190° South 234 269 4,200 -1,320 Descending KA90
10:14AM 42.1333 -71.0167 206° Southwest 244 281 3,100 -600 Descending KA90
10:15AM 42.1167 -71.1000 255° West 224 258 3,000 -60 Descending KA90
10:16AM 42.1667 -71.1000 360° North 198 228 3,000  Level KA90
10:17AM 42.2167 -71.0833 14° North 163 188 3,000 -360 Level KA90
10:18AM 42.2500 -71.0500 37° Northeast 158 182 2,300 -720 Descending KA90
10:19AM 42.2833 -71.0333 20° North 124 143 1,600 -600 Descending KA90
10:20AM 42.3167 -71.0333 360° North 118 136 1,100 -720 Descending KA90
10:21AM 42.3500 -71.0167 20° North 117 135 200 -900 Descending KA90